CheckWX is a tool to help pilots better visualize weather data.  It is not intended as a substitute for an official pre-flight weather briefing.

05:05:40 UTC

K0V4 METAR
Brookneal Airport
Brookneal, Virginia, USA
Current

31 mins ago

K0V4 240435Z AUTO 00000KT 3/4SM SCT003 SCT060 17/17 A2993 RMK AO1 T01720171
Observed
Jul-24 @ 04:35 UTC
Visibility
3/4 SM
Flight Rules
LIFR
Cloud Levels
  • Scattered at 300' AGL
  • Scattered at 6,000' AGL
Temperature
17°C / 63°F
Dewpoint
17°C / 63°F
Humidity
100%
Altimeter
29.93" Hg
Pressure
1013.52 hPa
Previous

51 mins ago

K0V4 240415Z AUTO 00000KT 1/2SM BKN003 18/18 A2994 RMK AO1 T01760175
Observed
Jul-24 @ 04:15 UTC
Visibility
1/2 SM
Flight Rules
LIFR
Cloud Levels
  • Broken at 300' AGL
Temperature
18°C / 64°F
Dewpoint
18°C / 64°F
Humidity
100%
Altimeter
29.94" Hg
Pressure
1013.92 hPa
Previous

1 hour ago

K0V4 240355Z AUTO 00000KT 1 3/4SM BKN003 18/18 A2994 RMK AO1 VIS 3/4V4 T01790178
Observed
Jul-24 @ 03:55 UTC
Visibility
1 3/4 SM
Flight Rules
LIFR
Cloud Levels
  • Broken at 300' AGL
Temperature
18°C / 64°F
Dewpoint
18°C / 64°F
Humidity
100%
Altimeter
29.94" Hg
Pressure
1013.92 hPa